AFL233 VIDP-UUEE
Flight info
| Callsign | AFL233 |
|---|---|
| Flight time | 5h 51m |
| Altitude | 36000 |
| Route | N0490F360 OROTI A589 ASARI L509 SULOM T400 LA J121 AKBER T400 INDEK L509 TAPIS M875 MILSO M161 DENUD T784 LARNO T291 URIDU L158 DIMGI |
| Aircraft | B77W/H-VGDW/C |
Departure
| Time | 2026-05-04 09:07 |
|---|---|
| Airport | Indira Gandhi International Airport (VIDP) |
Arrival
| Time | 2026-05-04 14:59 |
|---|---|
| Airport | Sheremetyevo International Airport (UUEE) |
| Time | Latitude | Longitude | Altitude | Speed | Heading |
|---|---|---|---|---|---|
| 2026-05-04 08:35 | 28.55412 | 77.08073 | 755 ft | 0 kts | 327° |
| 2026-05-04 08:57 | 28.55386 | 77.08124 | 751 ft | 4 kts | 253° |
| 2026-05-04 09:01 | 28.55398 | 77.08156 | 750 ft | 0 kts | 238° |
| 2026-05-04 09:02 | 28.55363 | 77.08092 | 750 ft | 20 kts | 238° |
| 2026-05-04 09:02 | 28.55289 | 77.07949 | 752 ft | 21 kts | 239° |
| 2026-05-04 09:02 | 28.55259 | 77.07823 | 751 ft | 13 kts | 276° |
| 2026-05-04 09:02 | 28.55276 | 77.07722 | 751 ft | 13 kts | 275° |
| 2026-05-04 09:03 | 28.55224 | 77.07647 | 754 ft | 13 kts | 197° |
| 2026-05-04 09:03 | 28.55136 | 77.07624 | 752 ft | 13 kts | 195° |
| 2026-05-04 09:03 | 28.55082 | 77.07551 | 753 ft | 13 kts | 269° |
| 2026-05-04 09:03 | 28.55109 | 77.07452 | 755 ft | 13 kts | 287° |
| 2026-05-04 09:04 | 28.55148 | 77.07298 | 753 ft | 23 kts | 284° |
| 2026-05-04 09:04 | 28.55188 | 77.07121 | 752 ft | 23 kts | 284° |
| 2026-05-04 09:04 | 28.55219 | 77.06987 | 751 ft | 16 kts | 284° |
| 2026-05-04 09:04 | 28.55184 | 77.06884 | 753 ft | 16 kts | 204° |
| 2026-05-04 09:05 | 28.55079 | 77.06849 | 750 ft | 16 kts | 193° |
| 2026-05-04 09:05 | 28.55010 | 77.06867 | 752 ft | 7 kts | 124° |
| 2026-05-04 09:05 | 28.54990 | 77.06928 | 753 ft | 13 kts | 104° |
| 2026-05-04 09:05 | 28.54979 | 77.06982 | 752 ft | 0 kts | 103° |
| 2026-05-04 09:06 | 28.54938 | 77.07175 | 752 ft | 66 kts | 103° |
| 2026-05-04 09:07 | 28.49300 | 77.13282 | 3816 ft | 262 kts | 188° |
| 2026-05-04 09:08 | 28.47492 | 77.12861 | 4522 ft | 266 kts | 188° |
| 2026-05-04 09:08 | 28.45675 | 77.12435 | 5064 ft | 269 kts | 189° |
| 2026-05-04 09:08 | 28.43848 | 77.12010 | 5937 ft | 265 kts | 189° |
| 2026-05-04 09:08 | 28.42055 | 77.11600 | 6552 ft | 262 kts | 190° |
| 2026-05-04 09:09 | 28.40237 | 77.11194 | 6832 ft | 267 kts | 191° |
| 2026-05-04 09:09 | 28.38416 | 77.10791 | 6820 ft | 265 kts | 190° |
| 2026-05-04 09:09 | 28.36600 | 77.10390 | 6826 ft | 266 kts | 191° |
| 2026-05-04 09:09 | 28.34808 | 77.09897 | 6819 ft | 264 kts | 203° |
| 2026-05-04 09:10 | 28.33345 | 77.08649 | 6831 ft | 273 kts | 231° |
| 2026-05-04 09:10 | 28.32521 | 77.06699 | 7042 ft | 280 kts | 256° |
| 2026-05-04 09:10 | 28.32446 | 77.04506 | 7907 ft | 277 kts | 277° |
| 2026-05-04 09:10 | 28.32893 | 77.02356 | 8670 ft | 281 kts | 283° |
| 2026-05-04 09:11 | 28.33405 | 77.00214 | 9490 ft | 280 kts | 283° |
| 2026-05-04 09:11 | 28.33921 | 76.98074 | 10214 ft | 284 kts | 283° |
| 2026-05-04 09:11 | 28.34449 | 76.95847 | 10550 ft | 303 kts | 283° |
| 2026-05-04 09:11 | 28.35009 | 76.93439 | 10758 ft | 327 kts | 283° |
| 2026-05-04 09:12 | 28.35606 | 76.90847 | 10916 ft | 352 kts | 283° |
| 2026-05-04 09:12 | 28.36233 | 76.88095 | 11417 ft | 364 kts | 283° |
| 2026-05-04 09:14 | 28.43090 | 76.68583 | 16639 ft | 394 kts | 292° |
| 2026-05-04 09:14 | 28.44227 | 76.65736 | 17385 ft | 398 kts | 292° |
| 2026-05-04 09:14 | 28.45364 | 76.62858 | 18120 ft | 401 kts | 292° |
| 2026-05-04 09:14 | 28.46508 | 76.59947 | 18779 ft | 404 kts | 292° |
| 2026-05-04 09:15 | 28.47655 | 76.57021 | 19449 ft | 407 kts | 292° |
| 2026-05-04 09:15 | 28.48808 | 76.54074 | 20121 ft | 409 kts | 292° |
| 2026-05-04 09:15 | 28.49967 | 76.51114 | 20792 ft | 412 kts | 292° |
| 2026-05-04 09:15 | 28.51135 | 76.48128 | 21428 ft | 414 kts | 291° |
| 2026-05-04 09:17 | 28.60955 | 76.23567 | 25596 ft | 437 kts | 292° |
| 2026-05-04 09:18 | 28.62219 | 76.20400 | 26050 ft | 440 kts | 292° |
| 2026-05-04 09:18 | 28.63486 | 76.17222 | 26495 ft | 443 kts | 292° |
| 2026-05-04 09:18 | 28.64761 | 76.14021 | 26916 ft | 445 kts | 292° |
| 2026-05-04 09:18 | 28.66041 | 76.10806 | 27332 ft | 448 kts | 292° |
| 2026-05-04 09:19 | 28.67331 | 76.07564 | 27739 ft | 450 kts | 292° |
| 2026-05-04 09:19 | 28.68625 | 76.04306 | 28126 ft | 453 kts | 292° |
| 2026-05-04 09:19 | 28.69929 | 76.01023 | 28484 ft | 456 kts | 292° |
| 2026-05-04 09:19 | 28.71239 | 75.97721 | 28819 ft | 458 kts | 292° |
| 2026-05-04 09:20 | 28.72555 | 75.94404 | 29141 ft | 461 kts | 292° |
| 2026-05-04 09:20 | 28.73927 | 75.91043 | 29397 ft | 462 kts | 297° |
| 2026-05-04 09:20 | 28.75807 | 75.88033 | 29626 ft | 471 kts | 310° |
| 2026-05-04 09:20 | 28.78265 | 75.85633 | 30013 ft | 474 kts | 323° |
| 2026-05-04 09:21 | 28.81069 | 75.83652 | 30314 ft | 475 kts | 325° |
| 2026-05-04 09:21 | 28.83904 | 75.81704 | 30635 ft | 476 kts | 326° |
| 2026-05-04 09:21 | 28.86739 | 75.79750 | 30999 ft | 476 kts | 325° |
| 2026-05-04 09:21 | 28.89559 | 75.77781 | 31352 ft | 475 kts | 325° |
| 2026-05-04 09:22 | 28.92367 | 75.75794 | 31693 ft | 475 kts | 325° |
| 2026-05-04 09:22 | 28.95165 | 75.73795 | 32025 ft | 475 kts | 324° |
| 2026-05-04 09:22 | 28.97961 | 75.71787 | 32338 ft | 475 kts | 324° |
| 2026-05-04 09:22 | 29.00756 | 75.69775 | 32628 ft | 476 kts | 324° |
| 2026-05-04 09:23 | 29.03557 | 75.67758 | 32920 ft | 476 kts | 324° |
| 2026-05-04 09:23 | 29.06360 | 75.65739 | 33226 ft | 476 kts | 325° |
| 2026-05-04 09:23 | 29.09170 | 75.63714 | 33513 ft | 477 kts | 325° |
| 2026-05-04 09:23 | 29.11978 | 75.61691 | 33763 ft | 478 kts | 325° |
| 2026-05-04 09:25 | 29.30357 | 75.45916 | 35115 ft | 465 kts | 294° |
| 2026-05-04 09:25 | 29.32039 | 75.42754 | 35130 ft | 471 kts | 309° |
| 2026-05-04 09:26 | 29.34583 | 75.40330 | 35208 ft | 483 kts | 328° |
| 2026-05-04 09:26 | 29.37744 | 75.38959 | 35389 ft | 491 kts | 345° |
| 2026-05-04 09:26 | 29.41129 | 75.38418 | 35600 ft | 492 kts | 349° |
| 2026-05-04 09:26 | 29.44535 | 75.37953 | 35708 ft | 494 kts | 349° |
| 2026-05-04 09:27 | 29.51359 | 75.36934 | 35797 ft | 492 kts | 348° |
| 2026-05-04 09:27 | 29.58097 | 75.35864 | 35800 ft | 486 kts | 348° |
| 2026-05-04 09:28 | 29.64797 | 75.34778 | 35808 ft | 486 kts | 348° |
| 2026-05-04 09:28 | 29.71507 | 75.33688 | 35807 ft | 487 kts | 348° |
| 2026-05-04 09:29 | 29.78227 | 75.32600 | 35811 ft | 488 kts | 348° |
| 2026-05-04 09:29 | 29.84978 | 75.31508 | 35807 ft | 491 kts | 348° |
| 2026-05-04 09:30 | 29.91750 | 75.30411 | 35806 ft | 492 kts | 348° |
| 2026-05-04 09:30 | 29.98543 | 75.29309 | 35802 ft | 494 kts | 348° |
| 2026-05-04 09:31 | 30.05362 | 75.28201 | 35800 ft | 495 kts | 348° |
| 2026-05-04 09:31 | 30.12145 | 75.27097 | 35793 ft | 495 kts | 348° |
| 2026-05-04 09:32 | 30.18972 | 75.25985 | 35791 ft | 495 kts | 348° |
| 2026-05-04 09:34 | 30.46153 | 75.21538 | 35791 ft | 499 kts | 349° |
| 2026-05-04 09:34 | 30.53038 | 75.20409 | 35787 ft | 500 kts | 349° |
| 2026-05-04 09:35 | 30.59923 | 75.19278 | 35778 ft | 499 kts | 349° |
| 2026-05-04 09:35 | 30.66795 | 75.18147 | 35787 ft | 498 kts | 349° |
| 2026-05-04 09:37 | 30.88044 | 75.07818 | 35791 ft | 476 kts | 313° |
| 2026-05-04 09:37 | 30.90462 | 75.05109 | 35795 ft | 477 kts | 313° |
| 2026-05-04 09:38 | 30.95244 | 74.99787 | 35796 ft | 479 kts | 313° |
| 2026-05-04 09:38 | 31.00111 | 74.94446 | 35786 ft | 481 kts | 313° |
| 2026-05-04 09:39 | 31.05001 | 74.89108 | 35794 ft | 482 kts | 313° |
| 2026-05-04 09:39 | 31.09902 | 74.83752 | 35785 ft | 482 kts | 313° |
| 2026-05-04 09:40 | 31.14789 | 74.78398 | 35780 ft | 482 kts | 313° |
| 2026-05-04 09:40 | 31.18848 | 74.73944 | 35778 ft | 481 kts | 313° |
| 2026-05-04 09:42 | 31.38462 | 74.52810 | 35776 ft | 479 kts | 317° |
| 2026-05-04 09:43 | 31.43647 | 74.47912 | 35776 ft | 478 kts | 317° |
| 2026-05-04 09:43 | 31.48808 | 74.42983 | 35775 ft | 478 kts | 317° |
| 2026-05-04 09:44 | 31.53958 | 74.38062 | 35777 ft | 477 kts | 318° |
| 2026-05-04 09:46 | 31.74902 | 74.18859 | 35781 ft | 477 kts | 319° |
| 2026-05-04 09:46 | 31.80092 | 74.14064 | 35780 ft | 478 kts | 319° |
| 2026-05-04 09:47 | 31.85321 | 74.09233 | 35780 ft | 478 kts | 319° |
| 2026-05-04 09:49 | 32.06528 | 73.90271 | 35783 ft | 478 kts | 320° |
| 2026-05-04 09:51 | 32.24957 | 73.73663 | 35787 ft | 476 kts | 320° |
| 2026-05-04 09:51 | 32.30214 | 73.68899 | 35794 ft | 476 kts | 320° |
| 2026-05-04 09:52 | 32.35473 | 73.64142 | 35793 ft | 476 kts | 320° |
| 2026-05-04 09:52 | 32.40726 | 73.59386 | 35794 ft | 475 kts | 320° |
| 2026-05-04 09:53 | 32.45985 | 73.54614 | 35798 ft | 476 kts | 320° |
| 2026-05-04 09:53 | 32.51235 | 73.49842 | 35799 ft | 476 kts | 320° |
| 2026-05-04 09:54 | 32.56482 | 73.45067 | 35792 ft | 476 kts | 320° |
| 2026-05-04 09:54 | 32.61738 | 73.40276 | 35796 ft | 476 kts | 320° |
| 2026-05-04 09:55 | 32.66955 | 73.35514 | 35796 ft | 476 kts | 320° |
| 2026-05-04 09:55 | 32.72202 | 73.30717 | 35802 ft | 476 kts | 320° |
| 2026-05-04 09:56 | 32.77017 | 73.25383 | 35821 ft | 472 kts | 309° |
| 2026-05-04 09:56 | 32.80938 | 73.19186 | 35813 ft | 468 kts | 301° |
| 2026-05-04 09:57 | 32.84489 | 73.12707 | 35805 ft | 467 kts | 300° |
| 2026-05-04 09:57 | 32.88034 | 73.06216 | 35807 ft | 467 kts | 300° |
| 2026-05-04 09:58 | 32.91600 | 72.99740 | 35812 ft | 468 kts | 301° |
| 2026-05-04 09:58 | 32.95177 | 72.93268 | 35811 ft | 468 kts | 301° |
| 2026-05-04 10:00 | 33.09467 | 72.67314 | 35807 ft | 470 kts | 301° |
| 2026-05-04 10:04 | 33.34298 | 72.21765 | 35773 ft | 462 kts | 301° |
| 2026-05-04 10:04 | 33.37787 | 72.15319 | 35772 ft | 461 kts | 301° |
| 2026-05-04 10:05 | 33.41278 | 72.08861 | 35780 ft | 462 kts | 301° |
| 2026-05-04 10:05 | 33.44747 | 72.02431 | 35780 ft | 462 kts | 301° |
| 2026-05-04 10:06 | 33.48238 | 71.95951 | 35777 ft | 463 kts | 301° |
| 2026-05-04 10:06 | 33.51638 | 71.89418 | 35766 ft | 460 kts | 294° |
| 2026-05-04 10:08 | 33.52750 | 71.66908 | 35766 ft | 459 kts | 266° |
| 2026-05-04 10:08 | 33.52489 | 71.63090 | 35773 ft | 460 kts | 266° |
| 2026-05-04 10:08 | 33.52003 | 71.55435 | 35767 ft | 461 kts | 267° |
| 2026-05-04 10:09 | 33.51539 | 71.47754 | 35770 ft | 462 kts | 267° |
| 2026-05-04 10:09 | 33.51075 | 71.40078 | 35772 ft | 462 kts | 267° |
| 2026-05-04 10:10 | 33.50604 | 71.32409 | 35764 ft | 461 kts | 267° |
| 2026-05-04 10:10 | 33.50129 | 71.24758 | 35779 ft | 460 kts | 267° |
| 2026-05-04 10:11 | 33.49653 | 71.17181 | 35782 ft | 458 kts | 268° |
| 2026-05-04 10:11 | 33.49172 | 71.09567 | 35802 ft | 457 kts | 268° |
| 2026-05-04 10:12 | 33.49581 | 71.02108 | 35809 ft | 448 kts | 290° |
| 2026-05-04 10:12 | 33.52704 | 70.95711 | 35808 ft | 448 kts | 314° |
| 2026-05-04 10:13 | 33.57285 | 70.90650 | 35837 ft | 450 kts | 316° |
| 2026-05-04 10:13 | 33.61924 | 70.85570 | 35852 ft | 453 kts | 316° |
| 2026-05-04 10:14 | 33.66548 | 70.80390 | 35860 ft | 455 kts | 315° |
| 2026-05-04 10:16 | 33.84938 | 70.59528 | 35865 ft | 452 kts | 315° |
| 2026-05-04 10:16 | 33.89493 | 70.54345 | 35869 ft | 450 kts | 315° |
| 2026-05-04 10:17 | 33.93535 | 70.48696 | 35859 ft | 449 kts | 305° |
| 2026-05-04 10:19 | 34.05603 | 70.22061 | 35855 ft | 450 kts | 298° |
| 2026-05-04 10:19 | 34.08544 | 70.15352 | 35873 ft | 454 kts | 298° |
| 2026-05-04 10:20 | 34.11487 | 70.08628 | 35878 ft | 450 kts | 298° |
| 2026-05-04 10:20 | 34.14410 | 70.01933 | 35873 ft | 450 kts | 298° |
| 2026-05-04 10:21 | 34.17318 | 69.95256 | 35871 ft | 449 kts | 298° |
| 2026-05-04 10:21 | 34.20200 | 69.88616 | 35881 ft | 449 kts | 298° |
| 2026-05-04 10:22 | 34.24535 | 69.78579 | 35893 ft | 448 kts | 298° |
| 2026-05-04 10:23 | 34.27417 | 69.71888 | 35888 ft | 449 kts | 298° |
| 2026-05-04 10:25 | 34.38439 | 69.46188 | 35882 ft | 450 kts | 297° |
| 2026-05-04 10:25 | 34.41314 | 69.39451 | 35874 ft | 450 kts | 297° |
| 2026-05-04 10:26 | 34.44186 | 69.32708 | 35874 ft | 450 kts | 297° |
| 2026-05-04 10:26 | 34.47050 | 69.25971 | 35852 ft | 450 kts | 297° |
| 2026-05-04 10:27 | 34.49990 | 69.19280 | 35855 ft | 448 kts | 304° |
| 2026-05-04 10:27 | 34.54214 | 69.13760 | 35872 ft | 449 kts | 319° |
| 2026-05-04 10:28 | 34.59507 | 69.09757 | 35879 ft | 453 kts | 330° |
| 2026-05-04 10:28 | 34.65113 | 69.06241 | 35873 ft | 454 kts | 330° |
| 2026-05-04 10:29 | 34.70728 | 69.02696 | 35892 ft | 455 kts | 330° |
| 2026-05-04 10:29 | 34.76332 | 68.99091 | 35889 ft | 455 kts | 329° |
| 2026-05-04 10:30 | 34.81904 | 68.95479 | 35899 ft | 453 kts | 329° |
| 2026-05-04 10:30 | 34.87468 | 68.91861 | 35936 ft | 454 kts | 329° |
| 2026-05-04 10:31 | 34.93040 | 68.88232 | 35946 ft | 454 kts | 329° |
| 2026-05-04 10:32 | 35.12593 | 68.75460 | 36027 ft | 458 kts | 329° |
| 2026-05-04 10:33 | 35.18214 | 68.71778 | 36043 ft | 459 kts | 329° |
| 2026-05-04 10:33 | 35.23823 | 68.68096 | 36059 ft | 456 kts | 329° |
| 2026-05-04 10:34 | 35.29407 | 68.64426 | 36080 ft | 454 kts | 329° |
| 2026-05-04 10:34 | 35.34961 | 68.60769 | 36074 ft | 452 kts | 329° |
| 2026-05-04 10:35 | 35.40505 | 68.57110 | 36079 ft | 453 kts | 329° |
| 2026-05-04 10:35 | 35.46083 | 68.53423 | 36070 ft | 456 kts | 329° |
| 2026-05-04 10:36 | 35.51677 | 68.49723 | 36063 ft | 456 kts | 329° |
| 2026-05-04 10:36 | 35.57269 | 68.46016 | 36052 ft | 457 kts | 329° |
| 2026-05-04 10:37 | 35.62873 | 68.42291 | 36049 ft | 458 kts | 329° |
| 2026-05-04 10:37 | 35.68469 | 68.38546 | 36050 ft | 458 kts | 329° |
| 2026-05-04 10:39 | 35.87940 | 68.25461 | 36060 ft | 453 kts | 329° |
| 2026-05-04 10:40 | 35.93520 | 68.21692 | 36060 ft | 461 kts | 329° |
| 2026-05-04 10:40 | 35.99129 | 68.17904 | 36024 ft | 448 kts | 329° |
| 2026-05-04 10:40 | 36.01817 | 68.16089 | 36022 ft | 433 kts | 329° |
| 2026-05-04 10:41 | 36.04442 | 68.14314 | 36028 ft | 428 kts | 329° |
| 2026-05-04 10:41 | 36.09701 | 68.10747 | 36045 ft | 435 kts | 329° |
| 2026-05-04 10:42 | 36.15056 | 68.07109 | 36047 ft | 441 kts | 329° |
| 2026-05-04 10:42 | 36.20447 | 68.03444 | 36035 ft | 442 kts | 329° |
| 2026-05-04 10:43 | 36.25840 | 67.99773 | 36027 ft | 442 kts | 329° |
| 2026-05-04 10:45 | 36.47241 | 67.85143 | 36012 ft | 437 kts | 329° |
| 2026-05-04 10:45 | 36.52564 | 67.81489 | 35997 ft | 437 kts | 329° |
| 2026-05-04 10:46 | 36.57884 | 67.77832 | 35999 ft | 436 kts | 329° |
| 2026-05-04 10:46 | 36.63203 | 67.74168 | 35995 ft | 437 kts | 329° |
| 2026-05-04 10:47 | 36.68530 | 67.70492 | 35986 ft | 438 kts | 329° |
| 2026-05-04 10:47 | 36.73871 | 67.66808 | 35985 ft | 438 kts | 329° |
| 2026-05-04 10:49 | 36.95228 | 67.52079 | 35971 ft | 439 kts | 329° |
| 2026-05-04 10:50 | 37.00566 | 67.48380 | 35967 ft | 439 kts | 329° |
| 2026-05-04 10:52 | 37.21892 | 67.33530 | 35966 ft | 439 kts | 329° |
| 2026-05-04 10:52 | 37.27130 | 67.29583 | 35969 ft | 439 kts | 327° |
| 2026-05-04 10:54 | 37.47979 | 67.13539 | 35965 ft | 439 kts | 327° |
| 2026-05-04 10:56 | 37.68825 | 66.97488 | 35986 ft | 440 kts | 327° |
| 2026-05-04 10:57 | 37.74043 | 66.93453 | 35997 ft | 440 kts | 327° |
| 2026-05-04 10:57 | 37.79263 | 66.89408 | 36005 ft | 440 kts | 327° |
| 2026-05-04 10:58 | 37.84486 | 66.85355 | 36010 ft | 440 kts | 327° |
| 2026-05-04 10:58 | 37.89714 | 66.81292 | 36017 ft | 441 kts | 327° |
| 2026-05-04 10:59 | 37.94941 | 66.77221 | 36028 ft | 441 kts | 327° |
| 2026-05-04 10:59 | 38.00144 | 66.73163 | 36045 ft | 440 kts | 327° |
| 2026-05-04 11:00 | 38.05356 | 66.69066 | 36024 ft | 441 kts | 327° |
| 2026-05-04 11:02 | 38.26169 | 66.52465 | 36017 ft | 442 kts | 327° |
| 2026-05-04 11:05 | 38.65294 | 66.21014 | 35962 ft | 471 kts | 327° |
| 2026-05-04 11:06 | 38.70881 | 66.16619 | 35968 ft | 470 kts | 327° |
| 2026-05-04 11:06 | 38.76449 | 66.12238 | 35971 ft | 469 kts | 327° |
| 2026-05-04 11:10 | 39.14917 | 65.81600 | 35966 ft | 463 kts | 327° |
| 2026-05-04 11:12 | 39.36843 | 65.63953 | 35966 ft | 464 kts | 327° |
| 2026-05-04 11:12 | 39.42285 | 65.59552 | 35969 ft | 464 kts | 327° |
| 2026-05-04 11:13 | 39.47754 | 65.55122 | 35974 ft | 464 kts | 327° |
| 2026-05-04 11:13 | 39.53231 | 65.50677 | 35975 ft | 463 kts | 327° |
| 2026-05-04 11:14 | 39.58685 | 65.46242 | 35975 ft | 463 kts | 327° |
| 2026-05-04 11:16 | 39.80417 | 65.28487 | 35983 ft | 461 kts | 326° |
| 2026-05-04 11:16 | 39.85845 | 65.24031 | 35980 ft | 461 kts | 326° |
| 2026-05-04 11:17 | 39.91270 | 65.19569 | 35988 ft | 461 kts | 326° |
| 2026-05-04 11:19 | 40.12930 | 65.01670 | 35996 ft | 461 kts | 326° |
| 2026-05-04 11:19 | 40.18340 | 64.97178 | 35996 ft | 460 kts | 326° |
| 2026-05-04 11:20 | 40.23752 | 64.92676 | 35992 ft | 460 kts | 326° |
| 2026-05-04 11:20 | 40.29150 | 64.88177 | 35984 ft | 460 kts | 326° |
| 2026-05-04 11:22 | 40.50674 | 64.70150 | 35974 ft | 459 kts | 326° |
| 2026-05-04 11:23 | 40.56057 | 64.65620 | 35984 ft | 459 kts | 326° |
| 2026-05-04 11:25 | 40.74886 | 64.49705 | 35977 ft | 459 kts | 326° |
| 2026-05-04 11:25 | 40.80228 | 64.45170 | 35976 ft | 459 kts | 326° |
| 2026-05-04 11:27 | 41.04372 | 64.24561 | 35980 ft | 459 kts | 326° |
| 2026-05-04 11:28 | 41.09730 | 64.19963 | 35986 ft | 459 kts | 326° |
| 2026-05-04 11:28 | 41.15047 | 64.15391 | 35981 ft | 458 kts | 326° |
| 2026-05-04 11:29 | 41.20405 | 64.10774 | 35984 ft | 459 kts | 326° |
| 2026-05-04 11:29 | 41.25755 | 64.06154 | 35985 ft | 459 kts | 326° |
| 2026-05-04 11:33 | 41.63213 | 63.73573 | 35984 ft | 459 kts | 326° |
| 2026-05-04 11:33 | 41.68548 | 63.68895 | 35977 ft | 459 kts | 326° |
| 2026-05-04 11:34 | 41.73881 | 63.64210 | 35980 ft | 458 kts | 326° |
| 2026-05-04 11:34 | 41.79214 | 63.59516 | 35979 ft | 458 kts | 326° |
| 2026-05-04 11:35 | 41.84546 | 63.54812 | 35876 ft | 459 kts | 324° |
| 2026-05-04 11:35 | 41.89872 | 63.50103 | 35974 ft | 465 kts | 324° |
| 2026-05-04 11:36 | 41.95308 | 63.45287 | 35974 ft | 469 kts | 324° |
| 2026-05-04 11:36 | 42.00657 | 63.40543 | 35963 ft | 457 kts | 324° |
| 2026-05-04 11:37 | 42.06019 | 63.35772 | 35988 ft | 466 kts | 324° |
| 2026-05-04 11:37 | 42.11455 | 63.30925 | 35970 ft | 470 kts | 324° |
| 2026-05-04 11:38 | 42.16906 | 63.26057 | 35976 ft | 470 kts | 324° |
| 2026-05-04 11:38 | 42.22317 | 63.21214 | 35969 ft | 470 kts | 324° |
| 2026-05-04 11:39 | 42.27760 | 63.16332 | 35971 ft | 469 kts | 324° |
| 2026-05-04 11:41 | 42.46730 | 62.99243 | 35973 ft | 467 kts | 324° |
| 2026-05-04 11:41 | 42.52139 | 62.94352 | 35983 ft | 467 kts | 324° |
| 2026-05-04 11:42 | 42.57547 | 62.89448 | 35979 ft | 468 kts | 324° |
| 2026-05-04 11:42 | 42.62959 | 62.84530 | 35977 ft | 468 kts | 324° |
| 2026-05-04 11:43 | 42.68381 | 62.79592 | 35976 ft | 469 kts | 324° |
| 2026-05-04 11:43 | 42.73799 | 62.74648 | 35978 ft | 469 kts | 324° |
| 2026-05-04 11:44 | 42.79185 | 62.69721 | 35976 ft | 469 kts | 324° |
| 2026-05-04 11:44 | 42.84610 | 62.64749 | 35980 ft | 470 kts | 324° |
| 2026-05-04 11:45 | 42.90031 | 62.59769 | 35980 ft | 470 kts | 324° |
| 2026-05-04 11:45 | 42.95458 | 62.54774 | 35979 ft | 470 kts | 324° |
| 2026-05-04 11:46 | 43.00890 | 62.49762 | 35975 ft | 471 kts | 324° |
| 2026-05-04 11:46 | 43.06316 | 62.44746 | 35977 ft | 471 kts | 324° |
| 2026-05-04 11:47 | 43.11740 | 62.39721 | 35975 ft | 471 kts | 323° |
| 2026-05-04 11:47 | 43.17163 | 62.34684 | 35978 ft | 471 kts | 323° |
| 2026-05-04 11:48 | 43.22555 | 62.29666 | 35976 ft | 471 kts | 323° |
| 2026-05-04 11:48 | 43.27975 | 62.24611 | 35979 ft | 471 kts | 323° |
| 2026-05-04 11:49 | 43.32478 | 62.20401 | 35985 ft | 471 kts | 323° |
| 2026-05-04 11:49 | 43.37888 | 62.15334 | 35968 ft | 471 kts | 323° |
| 2026-05-04 11:50 | 43.43300 | 62.10255 | 35971 ft | 471 kts | 323° |
| 2026-05-04 11:50 | 43.48971 | 62.05712 | 35985 ft | 473 kts | 332° |
| 2026-05-04 11:51 | 43.54953 | 62.01899 | 35977 ft | 474 kts | 333° |
| 2026-05-04 11:51 | 43.60941 | 61.98109 | 35981 ft | 474 kts | 333° |
| 2026-05-04 11:52 | 43.66929 | 61.94256 | 35989 ft | 474 kts | 332° |
| 2026-05-04 11:52 | 43.72910 | 61.90369 | 35987 ft | 475 kts | 332° |
| 2026-05-04 11:53 | 43.78895 | 61.86468 | 35982 ft | 476 kts | 332° |
| 2026-05-04 11:53 | 43.84888 | 61.82556 | 35983 ft | 476 kts | 332° |
| 2026-05-04 11:55 | 44.08863 | 61.66819 | 35987 ft | 477 kts | 332° |
| 2026-05-04 11:56 | 44.14824 | 61.62885 | 35991 ft | 477 kts | 332° |
| 2026-05-04 11:56 | 44.20830 | 61.58922 | 35986 ft | 477 kts | 332° |
| 2026-05-04 11:57 | 44.26842 | 61.54954 | 35983 ft | 477 kts | 332° |
| 2026-05-04 11:57 | 44.32836 | 61.50986 | 35985 ft | 477 kts | 332° |
| 2026-05-04 11:58 | 44.38828 | 61.47008 | 35984 ft | 477 kts | 332° |
| 2026-05-04 11:58 | 44.44783 | 61.43045 | 35985 ft | 477 kts | 332° |
| 2026-05-04 11:59 | 44.50782 | 61.39044 | 35985 ft | 477 kts | 332° |
| 2026-05-04 11:59 | 44.56775 | 61.35038 | 35985 ft | 477 kts | 332° |
| 2026-05-04 12:00 | 44.62761 | 61.31027 | 35985 ft | 477 kts | 332° |
| 2026-05-04 12:00 | 44.68750 | 61.27005 | 35982 ft | 477 kts | 332° |
| 2026-05-04 12:01 | 44.74738 | 61.22974 | 35984 ft | 477 kts | 332° |
| 2026-05-04 12:02 | 44.95702 | 61.08789 | 35979 ft | 478 kts | 332° |
| 2026-05-04 12:03 | 45.01661 | 61.04737 | 35972 ft | 469 kts | 332° |
| 2026-05-04 12:03 | 45.07526 | 61.00737 | 35998 ft | 475 kts | 332° |
| 2026-05-04 12:04 | 45.13534 | 60.96628 | 35991 ft | 481 kts | 332° |
| 2026-05-04 12:04 | 45.19573 | 60.92492 | 35981 ft | 481 kts | 332° |
| 2026-05-04 12:05 | 45.25594 | 60.88359 | 35986 ft | 480 kts | 332° |
| 2026-05-04 12:05 | 45.31601 | 60.84223 | 35984 ft | 479 kts | 331° |
| 2026-05-04 12:06 | 45.37595 | 60.80088 | 35961 ft | 478 kts | 331° |
| 2026-05-04 12:06 | 45.43263 | 60.75371 | 35988 ft | 473 kts | 321° |
| 2026-05-04 12:07 | 45.48301 | 60.69297 | 35999 ft | 470 kts | 315° |
| 2026-05-04 12:07 | 45.53104 | 60.63042 | 36002 ft | 470 kts | 315° |
| 2026-05-04 12:08 | 45.57979 | 60.56711 | 35991 ft | 471 kts | 315° |
| 2026-05-04 12:08 | 45.62809 | 60.50477 | 35990 ft | 471 kts | 315° |
| 2026-05-04 12:09 | 45.67669 | 60.44209 | 35982 ft | 465 kts | 315° |
| 2026-05-04 12:09 | 45.72464 | 60.38012 | 36013 ft | 467 kts | 315° |
| 2026-05-04 12:10 | 45.77330 | 60.31698 | 36000 ft | 475 kts | 315° |
| 2026-05-04 12:10 | 45.82230 | 60.25329 | 35992 ft | 475 kts | 315° |
| 2026-05-04 12:11 | 45.87127 | 60.18950 | 35991 ft | 475 kts | 315° |
| 2026-05-04 12:11 | 45.92011 | 60.12571 | 35989 ft | 474 kts | 315° |
| 2026-05-04 12:12 | 45.96854 | 60.06228 | 35988 ft | 473 kts | 315° |
| 2026-05-04 12:12 | 46.01744 | 59.99806 | 35986 ft | 473 kts | 315° |
| 2026-05-04 12:14 | 46.21086 | 59.74250 | 35980 ft | 472 kts | 315° |
| 2026-05-04 12:15 | 46.25873 | 59.67730 | 35973 ft | 472 kts | 313° |
| 2026-05-04 12:15 | 46.30530 | 59.61016 | 35968 ft | 473 kts | 312° |
| 2026-05-04 12:16 | 46.35175 | 59.54269 | 35969 ft | 474 kts | 313° |
| 2026-05-04 12:16 | 46.39849 | 59.47511 | 35972 ft | 475 kts | 313° |
| 2026-05-04 12:17 | 46.44504 | 59.40792 | 35964 ft | 475 kts | 313° |
| 2026-05-04 12:17 | 46.49188 | 59.34018 | 35965 ft | 476 kts | 312° |
| 2026-05-04 12:18 | 46.53879 | 59.27216 | 35961 ft | 477 kts | 312° |
| 2026-05-04 12:18 | 46.58568 | 59.20398 | 35957 ft | 477 kts | 312° |
| 2026-05-04 12:19 | 46.63268 | 59.13544 | 35946 ft | 478 kts | 312° |
| 2026-05-04 12:19 | 46.67967 | 59.06674 | 35951 ft | 478 kts | 312° |
| 2026-05-04 12:20 | 46.72643 | 58.99823 | 35927 ft | 470 kts | 312° |
| 2026-05-04 12:20 | 46.77263 | 58.93035 | 35953 ft | 475 kts | 311° |
| 2026-05-04 12:21 | 46.81953 | 58.86119 | 35948 ft | 481 kts | 311° |
| 2026-05-04 12:21 | 46.86635 | 58.79202 | 35932 ft | 481 kts | 311° |
| 2026-05-04 12:22 | 46.91342 | 58.72233 | 35932 ft | 481 kts | 311° |
| 2026-05-04 12:22 | 46.96028 | 58.65276 | 35922 ft | 479 kts | 311° |
| 2026-05-04 12:23 | 47.00698 | 58.58321 | 35918 ft | 477 kts | 311° |
| 2026-05-04 12:23 | 47.05347 | 58.51379 | 35913 ft | 476 kts | 311° |
| 2026-05-04 12:24 | 47.09979 | 58.44444 | 35913 ft | 475 kts | 311° |
| 2026-05-04 12:24 | 47.14604 | 58.37501 | 35910 ft | 474 kts | 311° |
| 2026-05-04 12:25 | 47.19215 | 58.30561 | 35903 ft | 474 kts | 311° |
| 2026-05-04 12:25 | 47.23816 | 58.23615 | 35900 ft | 475 kts | 311° |
| 2026-05-04 12:26 | 47.28405 | 58.16673 | 35892 ft | 476 kts | 311° |
| 2026-05-04 12:26 | 47.33023 | 58.09674 | 35893 ft | 476 kts | 311° |
| 2026-05-04 12:27 | 47.37646 | 58.02661 | 35888 ft | 477 kts | 310° |
| 2026-05-04 12:27 | 47.42269 | 57.95625 | 35890 ft | 478 kts | 310° |
| 2026-05-04 12:28 | 47.46892 | 57.88568 | 35887 ft | 478 kts | 310° |
| 2026-05-04 12:28 | 47.51516 | 57.81489 | 35887 ft | 478 kts | 310° |
| 2026-05-04 12:29 | 47.56099 | 57.74457 | 35879 ft | 467 kts | 310° |
| 2026-05-04 12:29 | 47.60641 | 57.67461 | 35897 ft | 475 kts | 310° |
| 2026-05-04 12:30 | 47.65257 | 57.60334 | 35891 ft | 480 kts | 310° |
| 2026-05-04 12:30 | 47.69873 | 57.53183 | 35875 ft | 480 kts | 310° |
| 2026-05-04 12:31 | 47.73702 | 57.47231 | 35896 ft | 478 kts | 309° |
| 2026-05-04 12:31 | 47.78294 | 57.40072 | 35881 ft | 477 kts | 309° |
| 2026-05-04 12:32 | 47.85140 | 57.29364 | 35893 ft | 475 kts | 309° |
| 2026-05-04 12:33 | 47.89654 | 57.22277 | 35889 ft | 474 kts | 309° |
| 2026-05-04 12:33 | 47.94192 | 57.15135 | 35890 ft | 473 kts | 309° |
| 2026-05-04 12:34 | 47.98707 | 57.08009 | 35899 ft | 472 kts | 309° |
| 2026-05-04 12:34 | 48.03213 | 57.00878 | 35894 ft | 471 kts | 309° |
| 2026-05-04 12:35 | 48.07684 | 56.93783 | 35894 ft | 471 kts | 309° |
| 2026-05-04 12:35 | 48.12171 | 56.86643 | 35901 ft | 471 kts | 309° |
| 2026-05-04 12:36 | 48.16649 | 56.79498 | 35898 ft | 470 kts | 309° |
| 2026-05-04 12:36 | 48.21121 | 56.72341 | 35897 ft | 470 kts | 309° |
| 2026-05-04 12:37 | 48.25589 | 56.65172 | 35898 ft | 469 kts | 309° |
| 2026-05-04 12:37 | 48.30044 | 56.58003 | 35898 ft | 469 kts | 309° |
| 2026-05-04 12:38 | 48.34492 | 56.50829 | 35894 ft | 469 kts | 309° |
| 2026-05-04 12:38 | 48.38932 | 56.43649 | 35897 ft | 468 kts | 309° |
| 2026-05-04 12:39 | 48.43365 | 56.36461 | 35897 ft | 468 kts | 309° |
| 2026-05-04 12:39 | 48.47769 | 56.29295 | 35889 ft | 469 kts | 309° |
| 2026-05-04 12:40 | 48.52193 | 56.22081 | 35882 ft | 468 kts | 309° |
| 2026-05-04 12:40 | 48.56609 | 56.14863 | 35883 ft | 467 kts | 309° |
| 2026-05-04 12:41 | 48.61013 | 56.07648 | 35877 ft | 466 kts | 309° |
| 2026-05-04 12:41 | 48.65405 | 56.00430 | 35879 ft | 466 kts | 309° |
| 2026-05-04 12:42 | 48.69780 | 55.93223 | 35881 ft | 465 kts | 309° |
| 2026-05-04 12:42 | 48.74116 | 55.86097 | 35886 ft | 457 kts | 309° |
| 2026-05-04 12:43 | 48.78463 | 55.78924 | 35886 ft | 466 kts | 309° |
| 2026-05-04 12:43 | 48.82871 | 55.71635 | 35870 ft | 468 kts | 309° |
| 2026-05-04 12:44 | 48.87265 | 55.64343 | 35877 ft | 468 kts | 309° |
| 2026-05-04 12:44 | 48.91647 | 55.57024 | 35877 ft | 467 kts | 308° |
| 2026-05-04 12:45 | 48.95978 | 55.49765 | 35879 ft | 465 kts | 308° |
| 2026-05-04 12:45 | 49.00325 | 55.42458 | 35886 ft | 464 kts | 308° |
| 2026-05-04 12:46 | 49.04654 | 55.35164 | 35881 ft | 463 kts | 308° |
| 2026-05-04 12:46 | 49.08968 | 55.27874 | 35891 ft | 463 kts | 308° |
| 2026-05-04 12:47 | 49.13277 | 55.20572 | 35897 ft | 463 kts | 308° |
| 2026-05-04 12:47 | 49.17583 | 55.13258 | 35884 ft | 460 kts | 308° |
| 2026-05-04 12:48 | 49.21809 | 55.06065 | 35897 ft | 456 kts | 308° |
| 2026-05-04 12:48 | 49.26083 | 54.98751 | 35897 ft | 464 kts | 308° |
| 2026-05-04 12:49 | 49.30393 | 54.91361 | 35894 ft | 465 kts | 308° |
| 2026-05-04 12:49 | 49.34699 | 54.83962 | 35903 ft | 465 kts | 308° |
| 2026-05-04 12:50 | 49.38997 | 54.76553 | 35889 ft | 463 kts | 307° |
| 2026-05-04 12:50 | 49.43271 | 54.69164 | 35894 ft | 462 kts | 307° |
| 2026-05-04 12:51 | 49.47539 | 54.61764 | 35884 ft | 462 kts | 307° |
| 2026-05-04 12:51 | 49.51785 | 54.54381 | 35896 ft | 459 kts | 307° |
| 2026-05-04 12:52 | 49.56010 | 54.47013 | 35900 ft | 458 kts | 307° |
| 2026-05-04 12:52 | 49.60209 | 54.39669 | 35902 ft | 457 kts | 307° |
| 2026-05-04 12:53 | 49.64402 | 54.32314 | 35912 ft | 456 kts | 307° |
| 2026-05-04 12:53 | 49.68591 | 54.24946 | 35917 ft | 456 kts | 307° |
| 2026-05-04 12:54 | 49.72774 | 54.17566 | 35916 ft | 457 kts | 307° |
| 2026-05-04 12:54 | 49.76958 | 54.10165 | 35921 ft | 457 kts | 306° |
| 2026-05-04 12:55 | 49.81145 | 54.02738 | 35924 ft | 458 kts | 306° |
| 2026-05-04 12:55 | 49.85289 | 53.95367 | 35931 ft | 450 kts | 306° |
| 2026-05-04 12:56 | 49.89435 | 53.87964 | 35941 ft | 459 kts | 306° |
| 2026-05-04 12:56 | 49.93641 | 53.80438 | 35943 ft | 462 kts | 306° |
| 2026-05-04 12:57 | 49.97849 | 53.72894 | 35941 ft | 461 kts | 306° |
| 2026-05-04 12:57 | 50.02041 | 53.65353 | 35933 ft | 460 kts | 306° |
| 2026-05-04 12:58 | 50.06215 | 53.57817 | 35944 ft | 459 kts | 306° |
| 2026-05-04 12:58 | 50.10373 | 53.50287 | 35955 ft | 458 kts | 306° |
| 2026-05-04 12:59 | 50.14527 | 53.42744 | 35948 ft | 458 kts | 305° |
| 2026-05-04 12:59 | 50.18664 | 53.35209 | 35950 ft | 457 kts | 305° |
| 2026-05-04 13:00 | 50.22769 | 53.27709 | 35956 ft | 458 kts | 305° |
| 2026-05-04 13:00 | 50.26901 | 53.20139 | 35950 ft | 457 kts | 305° |
| 2026-05-04 13:01 | 50.31023 | 53.12567 | 35949 ft | 457 kts | 305° |
| 2026-05-04 13:01 | 50.35174 | 53.04917 | 35957 ft | 457 kts | 305° |
| 2026-05-04 13:02 | 50.39265 | 52.97357 | 35952 ft | 458 kts | 305° |
| 2026-05-04 13:02 | 50.43377 | 52.89733 | 35952 ft | 458 kts | 304° |
| 2026-05-04 13:03 | 50.47484 | 52.82096 | 35956 ft | 458 kts | 304° |
| 2026-05-04 13:03 | 50.51592 | 52.74436 | 35949 ft | 458 kts | 304° |
| 2026-05-04 13:04 | 50.55722 | 52.66712 | 35946 ft | 458 kts | 304° |
| 2026-05-04 13:04 | 50.59791 | 52.59079 | 35949 ft | 458 kts | 304° |
| 2026-05-04 13:05 | 50.63873 | 52.51398 | 35946 ft | 457 kts | 304° |
| 2026-05-04 13:05 | 50.67956 | 52.43694 | 35947 ft | 457 kts | 304° |
| 2026-05-04 13:06 | 50.72042 | 52.36004 | 35948 ft | 457 kts | 304° |
| 2026-05-04 13:06 | 50.76146 | 52.28317 | 35937 ft | 457 kts | 304° |
| 2026-05-04 13:07 | 50.80233 | 52.20635 | 35934 ft | 456 kts | 304° |
| 2026-05-04 13:07 | 50.84312 | 52.12933 | 35950 ft | 456 kts | 304° |
| 2026-05-04 13:08 | 50.88386 | 52.05214 | 35950 ft | 456 kts | 304° |
| 2026-05-04 13:08 | 50.92450 | 51.97492 | 35948 ft | 456 kts | 304° |
| 2026-05-04 13:09 | 50.96516 | 51.89742 | 35957 ft | 457 kts | 304° |
| 2026-05-04 13:09 | 51.00549 | 51.82032 | 35963 ft | 457 kts | 304° |
| 2026-05-04 13:10 | 51.04597 | 51.74273 | 35959 ft | 449 kts | 304° |
| 2026-05-04 13:10 | 51.07930 | 51.67862 | 35979 ft | 452 kts | 304° |
| 2026-05-04 13:11 | 51.11979 | 51.60055 | 35980 ft | 461 kts | 306° |
| 2026-05-04 13:11 | 51.16588 | 51.52849 | 35976 ft | 468 kts | 315° |
| 2026-05-04 13:12 | 51.21891 | 51.46821 | 35978 ft | 472 kts | 321° |
| 2026-05-04 13:12 | 51.27396 | 51.41111 | 35942 ft | 471 kts | 322° |
| 2026-05-04 13:13 | 51.32865 | 51.35359 | 35947 ft | 469 kts | 321° |
| 2026-05-04 13:13 | 51.38286 | 51.29574 | 35950 ft | 468 kts | 321° |
| 2026-05-04 13:14 | 51.43709 | 51.23767 | 35952 ft | 468 kts | 321° |
| 2026-05-04 13:14 | 51.49133 | 51.18001 | 35955 ft | 468 kts | 322° |
| 2026-05-04 13:15 | 51.54577 | 51.12251 | 35958 ft | 468 kts | 322° |
| 2026-05-04 13:15 | 51.60015 | 51.06476 | 35950 ft | 468 kts | 322° |
| 2026-05-04 13:16 | 51.65548 | 51.00878 | 35953 ft | 472 kts | 328° |
| 2026-05-04 13:16 | 51.71623 | 50.96738 | 35953 ft | 478 kts | 339° |
| 2026-05-04 13:17 | 51.78076 | 50.93962 | 35956 ft | 480 kts | 342° |
| 2026-05-04 13:17 | 51.84560 | 50.91293 | 35954 ft | 480 kts | 341° |
| 2026-05-04 13:18 | 51.90992 | 50.88406 | 35945 ft | 478 kts | 336° |
| 2026-05-04 13:18 | 51.96871 | 50.83604 | 35956 ft | 471 kts | 323° |
| 2026-05-04 13:19 | 52.01935 | 50.76989 | 35957 ft | 467 kts | 316° |
| 2026-05-04 13:19 | 52.06795 | 50.69979 | 35954 ft | 467 kts | 316° |
| 2026-05-04 13:20 | 52.11673 | 50.62974 | 35946 ft | 468 kts | 316° |
| 2026-05-04 13:20 | 52.16570 | 50.55999 | 35929 ft | 468 kts | 316° |
| 2026-05-04 13:21 | 52.21488 | 50.48999 | 35949 ft | 468 kts | 316° |
| 2026-05-04 13:21 | 52.26359 | 50.42044 | 35933 ft | 468 kts | 316° |
| 2026-05-04 13:22 | 52.31252 | 50.35033 | 35935 ft | 468 kts | 317° |
| 2026-05-04 13:22 | 52.36136 | 50.28010 | 35936 ft | 468 kts | 317° |
| 2026-05-04 13:23 | 52.41021 | 50.20966 | 35939 ft | 467 kts | 317° |
| 2026-05-04 13:23 | 52.45889 | 50.13923 | 35938 ft | 467 kts | 317° |
| 2026-05-04 13:24 | 52.50750 | 50.06869 | 35941 ft | 466 kts | 317° |
| 2026-05-04 13:24 | 52.55387 | 49.99480 | 35944 ft | 464 kts | 309° |
| 2026-05-04 13:25 | 52.60735 | 49.86307 | 35944 ft | 461 kts | 298° |
| 2026-05-04 13:25 | 52.63755 | 49.76984 | 35935 ft | 461 kts | 297° |
| 2026-05-04 13:26 | 52.66770 | 49.67644 | 35939 ft | 461 kts | 297° |
| 2026-05-04 13:26 | 52.69802 | 49.58322 | 35937 ft | 462 kts | 297° |
| 2026-05-04 13:27 | 52.72842 | 49.48984 | 35937 ft | 462 kts | 297° |
| 2026-05-04 13:27 | 52.75877 | 49.39631 | 35935 ft | 462 kts | 297° |
| 2026-05-04 13:28 | 52.78905 | 49.30260 | 35940 ft | 462 kts | 297° |
| 2026-05-04 13:28 | 52.81906 | 49.20932 | 35925 ft | 453 kts | 297° |
| 2026-05-04 13:29 | 52.84878 | 49.11660 | 35938 ft | 462 kts | 297° |
| 2026-05-04 13:29 | 52.87904 | 49.02180 | 35937 ft | 466 kts | 297° |
| 2026-05-04 13:30 | 52.90897 | 48.92772 | 35932 ft | 464 kts | 297° |
| 2026-05-04 13:30 | 52.93900 | 48.83299 | 35936 ft | 463 kts | 297° |
| 2026-05-04 13:31 | 52.96847 | 48.73955 | 35933 ft | 455 kts | 297° |
| 2026-05-04 13:31 | 52.99808 | 48.64528 | 35937 ft | 465 kts | 297° |
| 2026-05-04 13:32 | 53.02799 | 48.54967 | 35935 ft | 466 kts | 297° |
| 2026-05-04 13:32 | 53.05781 | 48.45400 | 35930 ft | 465 kts | 297° |
| 2026-05-04 13:33 | 53.08754 | 48.35873 | 35935 ft | 464 kts | 298° |
| 2026-05-04 13:33 | 53.12394 | 48.27097 | 35935 ft | 464 kts | 308° |
| 2026-05-04 13:34 | 53.16855 | 48.19318 | 35938 ft | 465 kts | 315° |
| 2026-05-04 13:34 | 53.21565 | 48.11928 | 35932 ft | 465 kts | 315° |
| 2026-05-04 13:35 | 53.28600 | 48.00768 | 35930 ft | 465 kts | 315° |
| 2026-05-04 13:36 | 53.33260 | 47.93268 | 35934 ft | 465 kts | 315° |
| 2026-05-04 13:36 | 53.37921 | 47.85737 | 35933 ft | 465 kts | 315° |
| 2026-05-04 13:37 | 53.42578 | 47.78192 | 35934 ft | 465 kts | 315° |
| 2026-05-04 13:37 | 53.46443 | 47.71916 | 35930 ft | 465 kts | 315° |
| 2026-05-04 13:38 | 53.51881 | 47.63066 | 35929 ft | 465 kts | 315° |
| 2026-05-04 13:38 | 53.56499 | 47.55532 | 35926 ft | 465 kts | 315° |
| 2026-05-04 13:39 | 53.61136 | 47.47940 | 35927 ft | 464 kts | 315° |
| 2026-05-04 13:39 | 53.65755 | 47.40349 | 35931 ft | 464 kts | 315° |
| 2026-05-04 13:40 | 53.70368 | 47.32744 | 35932 ft | 463 kts | 315° |
| 2026-05-04 13:40 | 53.74970 | 47.25132 | 35933 ft | 462 kts | 315° |
| 2026-05-04 13:41 | 53.79555 | 47.17524 | 35929 ft | 462 kts | 315° |
| 2026-05-04 13:41 | 53.84129 | 47.09893 | 35926 ft | 461 kts | 314° |
| 2026-05-04 13:42 | 53.90964 | 46.98437 | 35926 ft | 460 kts | 314° |
| 2026-05-04 13:42 | 53.95519 | 46.90772 | 35926 ft | 460 kts | 314° |
| 2026-05-04 13:43 | 54.00025 | 46.83166 | 35925 ft | 459 kts | 314° |
| 2026-05-04 13:43 | 54.04554 | 46.75500 | 35925 ft | 459 kts | 314° |
| 2026-05-04 13:44 | 54.09085 | 46.67824 | 35923 ft | 459 kts | 314° |
| 2026-05-04 13:44 | 54.13596 | 46.60157 | 35914 ft | 458 kts | 314° |
| 2026-05-04 13:45 | 54.18100 | 46.52472 | 35919 ft | 457 kts | 314° |
| 2026-05-04 13:45 | 54.22591 | 46.44782 | 35923 ft | 457 kts | 314° |
| 2026-05-04 13:46 | 54.27080 | 46.37071 | 35913 ft | 457 kts | 314° |
| 2026-05-04 13:46 | 54.31558 | 46.29354 | 35917 ft | 456 kts | 314° |
| 2026-05-04 13:47 | 54.36033 | 46.21616 | 35914 ft | 456 kts | 314° |
| 2026-05-04 13:47 | 54.40470 | 46.13921 | 35920 ft | 456 kts | 314° |
| 2026-05-04 13:48 | 54.44931 | 46.06154 | 35912 ft | 456 kts | 314° |
| 2026-05-04 13:48 | 54.49380 | 45.98372 | 35912 ft | 456 kts | 314° |
| 2026-05-04 13:49 | 54.53826 | 45.90568 | 35915 ft | 456 kts | 314° |
| 2026-05-04 13:49 | 54.58266 | 45.82748 | 35911 ft | 456 kts | 314° |
| 2026-05-04 13:50 | 54.62697 | 45.74918 | 35916 ft | 456 kts | 314° |
| 2026-05-04 13:50 | 54.67120 | 45.67077 | 35910 ft | 455 kts | 314° |
| 2026-05-04 13:51 | 54.70792 | 45.60547 | 35906 ft | 455 kts | 314° |
| 2026-05-04 13:51 | 54.75273 | 45.52832 | 35907 ft | 454 kts | 318° |
| 2026-05-04 13:52 | 54.82942 | 45.43169 | 35908 ft | 454 kts | 324° |
| 2026-05-04 13:53 | 54.88149 | 45.36960 | 35897 ft | 453 kts | 324° |
| 2026-05-04 13:53 | 54.93327 | 45.30705 | 35899 ft | 453 kts | 324° |
| 2026-05-04 13:54 | 55.01073 | 45.21258 | 35894 ft | 453 kts | 324° |
| 2026-05-04 13:55 | 55.08811 | 45.11774 | 35892 ft | 453 kts | 324° |
| 2026-05-04 13:55 | 55.16505 | 45.02301 | 35891 ft | 453 kts | 324° |
| 2026-05-04 13:56 | 55.21653 | 44.95936 | 35888 ft | 453 kts | 324° |
| 2026-05-04 13:57 | 55.29224 | 44.86073 | 35881 ft | 452 kts | 315° |
| 2026-05-04 13:58 | 55.35975 | 44.67568 | 35889 ft | 454 kts | 296° |
| 2026-05-04 13:58 | 55.39925 | 44.52387 | 35878 ft | 455 kts | 296° |
| 2026-05-04 13:59 | 55.42591 | 44.42286 | 35876 ft | 454 kts | 296° |
| 2026-05-04 14:00 | 55.46549 | 44.27346 | 35885 ft | 453 kts | 296° |
| 2026-05-04 14:00 | 55.50559 | 44.12106 | 35868 ft | 457 kts | 296° |
| 2026-05-04 14:01 | 55.53220 | 44.01924 | 35866 ft | 456 kts | 296° |
| 2026-05-04 14:02 | 55.57171 | 43.86730 | 35860 ft | 455 kts | 296° |
| 2026-05-04 14:02 | 55.59853 | 43.76620 | 35858 ft | 453 kts | 300° |
| 2026-05-04 14:03 | 55.62982 | 43.66979 | 35865 ft | 451 kts | 302° |
| 2026-05-04 14:03 | 55.66159 | 43.57368 | 35860 ft | 452 kts | 302° |
| 2026-05-04 14:04 | 55.70871 | 43.42873 | 35860 ft | 452 kts | 302° |
| 2026-05-04 14:04 | 55.73988 | 43.33201 | 35861 ft | 452 kts | 302° |
| 2026-05-04 14:05 | 55.78383 | 43.18393 | 35863 ft | 454 kts | 292° |
| 2026-05-04 14:06 | 55.80040 | 43.07529 | 35867 ft | 459 kts | 282° |
| 2026-05-04 14:06 | 55.80732 | 42.96222 | 35862 ft | 460 kts | 278° |
| 2026-05-04 14:07 | 55.81307 | 42.84943 | 35854 ft | 461 kts | 278° |
| 2026-05-04 14:07 | 55.81907 | 42.73612 | 35849 ft | 460 kts | 278° |
| 2026-05-04 14:08 | 55.82524 | 42.62283 | 35853 ft | 460 kts | 278° |
| 2026-05-04 14:08 | 55.83137 | 42.50964 | 35847 ft | 460 kts | 278° |
| 2026-05-04 14:09 | 55.84035 | 42.33969 | 35844 ft | 460 kts | 278° |
| 2026-05-04 14:10 | 55.84908 | 42.16971 | 35848 ft | 459 kts | 278° |
| 2026-05-04 14:10 | 55.85478 | 42.05629 | 35842 ft | 459 kts | 278° |
| 2026-05-04 14:11 | 55.86033 | 41.94361 | 35841 ft | 459 kts | 278° |
| 2026-05-04 14:11 | 55.86773 | 41.77340 | 35848 ft | 461 kts | 274° |
| 2026-05-04 14:12 | 55.86502 | 41.65895 | 35844 ft | 463 kts | 270° |
| 2026-05-04 14:13 | 55.85913 | 41.48736 | 35841 ft | 463 kts | 270° |
| 2026-05-04 14:13 | 55.85539 | 41.37292 | 35839 ft | 463 kts | 270° |
| 2026-05-04 14:14 | 55.85166 | 41.25848 | 35852 ft | 463 kts | 270° |
| 2026-05-04 14:14 | 55.84587 | 41.08689 | 35850 ft | 463 kts | 270° |
| 2026-05-04 14:15 | 55.83779 | 40.85925 | 35848 ft | 462 kts | 269° |
| 2026-05-04 14:16 | 55.83144 | 40.68733 | 35074 ft | 471 kts | 270° |
| 2026-05-04 14:17 | 55.82694 | 40.57037 | 33509 ft | 487 kts | 270° |
| 2026-05-04 14:17 | 55.82453 | 40.50899 | 32696 ft | 507 kts | 269° |
| 2026-05-04 14:17 | 55.81926 | 40.38240 | 32232 ft | 499 kts | 269° |
| 2026-05-04 14:18 | 55.81661 | 40.32209 | 32065 ft | 480 kts | 269° |
| 2026-05-04 14:19 | 55.80624 | 40.08047 | 31973 ft | 501 kts | 269° |
| 2026-05-04 14:19 | 55.80067 | 39.95605 | 31971 ft | 508 kts | 268° |
| 2026-05-04 14:20 | 55.79495 | 39.83121 | 32685 ft | 498 kts | 269° |
| 2026-05-04 14:20 | 55.79187 | 39.76997 | 32847 ft | 500 kts | 268° |
| 2026-05-04 14:20 | 55.78803 | 39.70903 | 32846 ft | 504 kts | 266° |
| 2026-05-04 14:21 | 55.77511 | 39.52257 | 33450 ft | 500 kts | 266° |
| 2026-05-04 14:21 | 55.77099 | 39.46152 | 33754 ft | 499 kts | 267° |
| 2026-05-04 14:21 | 55.76689 | 39.39996 | 33726 ft | 502 kts | 266° |
| 2026-05-04 14:22 | 55.75833 | 39.27604 | 33754 ft | 507 kts | 266° |
| 2026-05-04 14:22 | 55.75392 | 39.21430 | 34186 ft | 499 kts | 266° |
| 2026-05-04 14:22 | 55.74956 | 39.15367 | 34531 ft | 496 kts | 266° |
| 2026-05-04 14:23 | 55.73632 | 38.96960 | 34497 ft | 505 kts | 265° |
| 2026-05-04 14:23 | 55.73323 | 38.90775 | 34723 ft | 498 kts | 273° |
| 2026-05-04 14:24 | 55.73566 | 38.84732 | 35289 ft | 487 kts | 278° |
| 2026-05-04 14:24 | 55.74374 | 38.72693 | 35214 ft | 494 kts | 278° |
| 2026-05-04 14:25 | 55.75062 | 38.60508 | 35197 ft | 495 kts | 282° |
| 2026-05-04 14:25 | 55.77872 | 38.49553 | 35308 ft | 487 kts | 309° |
| 2026-05-04 14:25 | 55.79937 | 38.44852 | 35683 ft | 482 kts | 308° |
| 2026-05-04 14:26 | 55.83887 | 38.35100 | 35637 ft | 489 kts | 307° |
| 2026-05-04 14:26 | 55.88044 | 38.25461 | 35642 ft | 492 kts | 309° |
| 2026-05-04 14:27 | 55.90127 | 38.20763 | 36035 ft | 485 kts | 308° |
| 2026-05-04 14:27 | 55.92197 | 38.16056 | 36313 ft | 483 kts | 308° |
| 2026-05-04 14:27 | 55.96321 | 38.06513 | 36301 ft | 488 kts | 308° |
| 2026-05-04 14:28 | 56.00226 | 37.96589 | 36278 ft | 491 kts | 296° |
| 2026-05-04 14:28 | 56.01232 | 37.91620 | 36265 ft | 493 kts | 283° |
| 2026-05-04 14:28 | 56.01925 | 37.85657 | 36243 ft | 488 kts | 288° |
| 2026-05-04 14:29 | 56.05344 | 37.75813 | 36235 ft | 490 kts | 316° |
| 2026-05-04 14:29 | 56.11173 | 37.69613 | 36242 ft | 492 kts | 336° |
| 2026-05-04 14:30 | 56.17328 | 37.64187 | 36230 ft | 493 kts | 327° |
| 2026-05-04 14:30 | 56.22725 | 37.56824 | 36678 ft | 481 kts | 309° |
| 2026-05-04 14:31 | 56.24561 | 37.51790 | 36649 ft | 485 kts | 295° |
| 2026-05-04 14:31 | 56.26099 | 37.39974 | 36659 ft | 492 kts | 271° |
| 2026-05-04 14:32 | 56.24857 | 37.27939 | 36623 ft | 501 kts | 247° |
| 2026-05-04 14:32 | 56.23645 | 37.24295 | 36627 ft | 506 kts | 233° |
| 2026-05-04 14:32 | 56.20035 | 37.19129 | 37310 ft | 503 kts | 208° |
| 2026-05-04 14:32 | 56.16674 | 37.17228 | 37248 ft | 514 kts | 189° |
| 2026-05-04 14:33 | 56.13078 | 37.17416 | 37258 ft | 521 kts | 169° |
| 2026-05-04 14:33 | 56.09670 | 37.19679 | 37262 ft | 527 kts | 150° |
| 2026-05-04 14:33 | 56.06816 | 37.23784 | 37261 ft | 527 kts | 131° |
| 2026-05-04 14:33 | 56.05395 | 37.27272 | 37186 ft | 515 kts | 119° |
| 2026-05-04 14:34 | 56.03884 | 37.32942 | 37079 ft | 498 kts | 110° |
| 2026-05-04 14:34 | 56.02849 | 37.38808 | 36405 ft | 494 kts | 102° |
| 2026-05-04 14:34 | 56.02296 | 37.44879 | 35373 ft | 497 kts | 92° |
| 2026-05-04 14:34 | 56.02262 | 37.51006 | 34364 ft | 488 kts | 83° |
| 2026-05-04 14:35 | 56.02738 | 37.56952 | 33197 ft | 480 kts | 74° |
| 2026-05-04 14:35 | 56.03712 | 37.62613 | 31993 ft | 473 kts | 65° |
| 2026-05-04 14:35 | 56.05149 | 37.67833 | 30865 ft | 466 kts | 56° |
| 2026-05-04 14:35 | 56.07017 | 37.72522 | 29730 ft | 459 kts | 47° |
| 2026-05-04 14:36 | 56.09247 | 37.76535 | 28481 ft | 452 kts | 37° |
| 2026-05-04 14:36 | 56.11779 | 37.79787 | 27280 ft | 445 kts | 27° |
| 2026-05-04 14:36 | 56.14538 | 37.82201 | 26132 ft | 438 kts | 18° |
| 2026-05-04 14:36 | 56.17407 | 37.83964 | 25027 ft | 433 kts | 14° |
| 2026-05-04 14:37 | 56.20283 | 37.85492 | 23962 ft | 430 kts | 13° |
| 2026-05-04 14:37 | 56.23151 | 37.86954 | 22831 ft | 427 kts | 12° |
| 2026-05-04 14:37 | 56.26007 | 37.88401 | 21660 ft | 424 kts | 12° |
| 2026-05-04 14:37 | 56.28839 | 37.89835 | 20506 ft | 421 kts | 12° |
| 2026-05-04 14:38 | 56.31646 | 37.91254 | 19405 ft | 417 kts | 12° |
| 2026-05-04 14:38 | 56.34425 | 37.92657 | 18345 ft | 413 kts | 12° |
| 2026-05-04 14:38 | 56.37177 | 37.94048 | 17190 ft | 409 kts | 12° |
| 2026-05-04 14:38 | 56.39899 | 37.95428 | 16033 ft | 404 kts | 12° |
| 2026-05-04 14:39 | 56.42552 | 37.96781 | 14935 ft | 399 kts | 12° |
| 2026-05-04 14:39 | 56.45204 | 37.98143 | 13842 ft | 394 kts | 12° |
| 2026-05-04 14:39 | 56.47819 | 37.99496 | 12702 ft | 388 kts | 12° |
| 2026-05-04 14:40 | 56.52937 | 38.02189 | 10455 ft | 378 kts | 12° |
| 2026-05-04 14:40 | 56.55442 | 38.03531 | 9346 ft | 373 kts | 12° |
| 2026-05-04 14:40 | 56.57918 | 38.04871 | 8214 ft | 369 kts | 12° |
| 2026-05-04 14:40 | 56.60339 | 38.06197 | 7521 ft | 354 kts | 12° |
| 2026-05-04 14:41 | 56.62664 | 38.07488 | 7323 ft | 348 kts | 12° |
| 2026-05-04 14:41 | 56.64972 | 38.08476 | 7174 ft | 335 kts | 0° |
| 2026-05-04 14:41 | 56.69154 | 38.06246 | 6672 ft | 303 kts | 316° |
| 2026-05-04 14:42 | 56.70738 | 37.99873 | 6484 ft | 272 kts | 267° |
| 2026-05-04 14:42 | 56.70227 | 37.96652 | 6406 ft | 263 kts | 246° |
| 2026-05-04 14:42 | 56.69322 | 37.93830 | 6330 ft | 253 kts | 242° |
| 2026-05-04 14:43 | 56.68352 | 37.91178 | 5988 ft | 250 kts | 234° |
| 2026-05-04 14:43 | 56.67031 | 37.89039 | 5507 ft | 260 kts | 220° |
| 2026-05-04 14:43 | 56.65488 | 37.87181 | 4888 ft | 272 kts | 214° |
| 2026-05-04 14:43 | 56.63766 | 37.85557 | 4316 ft | 284 kts | 208° |
| 2026-05-04 14:44 | 56.61900 | 37.84247 | 3781 ft | 291 kts | 201° |
| 2026-05-04 14:44 | 56.59970 | 37.83255 | 3386 ft | 294 kts | 196° |
| 2026-05-04 14:44 | 56.57950 | 37.82469 | 2944 ft | 299 kts | 193° |
| 2026-05-04 14:44 | 56.55926 | 37.81863 | 2844 ft | 289 kts | 191° |
| 2026-05-04 14:45 | 56.53965 | 37.81382 | 2779 ft | 279 kts | 189° |
| 2026-05-04 14:45 | 56.52071 | 37.80994 | 2689 ft | 266 kts | 188° |
| 2026-05-04 14:45 | 56.50309 | 37.80682 | 2538 ft | 241 kts | 188° |
| 2026-05-04 14:45 | 56.48719 | 37.80418 | 2441 ft | 217 kts | 188° |
| 2026-05-04 14:46 | 56.47306 | 37.80196 | 2422 ft | 194 kts | 189° |
| 2026-05-04 14:46 | 56.45951 | 37.79972 | 2501 ft | 199 kts | 189° |
| 2026-05-04 14:46 | 56.44576 | 37.79753 | 2472 ft | 198 kts | 188° |
| 2026-05-04 14:46 | 56.43187 | 37.79538 | 2475 ft | 201 kts | 189° |
| 2026-05-04 14:47 | 56.41797 | 37.79326 | 2483 ft | 200 kts | 188° |
| 2026-05-04 14:47 | 56.40415 | 37.79118 | 2480 ft | 198 kts | 189° |
| 2026-05-04 14:47 | 56.39038 | 37.78918 | 2481 ft | 199 kts | 189° |
| 2026-05-04 14:47 | 56.37656 | 37.78711 | 2467 ft | 199 kts | 188° |
| 2026-05-04 14:48 | 56.36281 | 37.78503 | 2464 ft | 197 kts | 189° |
| 2026-05-04 14:48 | 56.34920 | 37.78301 | 2463 ft | 195 kts | 188° |
| 2026-05-04 14:48 | 56.33570 | 37.78106 | 2463 ft | 194 kts | 189° |
| 2026-05-04 14:48 | 56.32227 | 37.77910 | 2465 ft | 194 kts | 189° |
| 2026-05-04 14:49 | 56.30871 | 37.77666 | 2489 ft | 199 kts | 188° |
| 2026-05-04 14:49 | 56.29482 | 37.77472 | 2469 ft | 198 kts | 187° |
| 2026-05-04 14:49 | 56.28111 | 37.77306 | 2481 ft | 200 kts | 188° |
| 2026-05-04 14:49 | 56.26724 | 37.77113 | 2462 ft | 197 kts | 188° |
| 2026-05-04 14:50 | 56.25391 | 37.76926 | 2480 ft | 194 kts | 188° |
| 2026-05-04 14:50 | 56.24026 | 37.76736 | 2473 ft | 195 kts | 188° |
| 2026-05-04 14:50 | 56.22671 | 37.76538 | 2483 ft | 196 kts | 188° |
| 2026-05-04 14:50 | 56.21316 | 37.76339 | 2467 ft | 199 kts | 188° |
| 2026-05-04 14:51 | 56.19944 | 37.76146 | 2473 ft | 196 kts | 188° |
| 2026-05-04 14:51 | 56.18586 | 37.75956 | 2479 ft | 195 kts | 188° |
| 2026-05-04 14:51 | 56.17224 | 37.75761 | 2485 ft | 197 kts | 188° |
| 2026-05-04 14:51 | 56.15856 | 37.75565 | 2483 ft | 197 kts | 187° |
| 2026-05-04 14:52 | 56.14484 | 37.75365 | 2490 ft | 199 kts | 187° |
| 2026-05-04 14:52 | 56.13110 | 37.75175 | 2476 ft | 198 kts | 188° |
| 2026-05-04 14:52 | 56.11751 | 37.74986 | 2495 ft | 195 kts | 189° |
| 2026-05-04 14:52 | 56.10380 | 37.74770 | 2464 ft | 198 kts | 188° |
| 2026-05-04 14:53 | 56.09017 | 37.74585 | 2468 ft | 196 kts | 187° |
| 2026-05-04 14:53 | 56.07655 | 37.74394 | 2489 ft | 196 kts | 187° |
| 2026-05-04 14:53 | 56.06288 | 37.74204 | 2467 ft | 196 kts | 188° |
| 2026-05-04 14:53 | 56.04939 | 37.74001 | 2472 ft | 194 kts | 187° |
| 2026-05-04 14:54 | 56.03586 | 37.73804 | 2480 ft | 195 kts | 190° |
| 2026-05-04 14:54 | 56.02379 | 37.72872 | 2471 ft | 189 kts | 227° |
| 2026-05-04 14:54 | 56.01769 | 37.70933 | 2462 ft | 171 kts | 250° |
| 2026-05-04 14:54 | 56.01347 | 37.69022 | 2453 ft | 159 kts | 250° |
| 2026-05-04 14:55 | 56.01001 | 37.67192 | 2469 ft | 154 kts | 254° |
| 2026-05-04 14:55 | 56.00711 | 37.65401 | 2498 ft | 146 kts | 254° |
| 2026-05-04 14:55 | 56.00448 | 37.63686 | 2462 ft | 139 kts | 256° |
| 2026-05-04 14:55 | 56.00208 | 37.62079 | 2485 ft | 137 kts | 256° |
| 2026-05-04 14:56 | 55.99961 | 37.60430 | 2472 ft | 137 kts | 255° |
| 2026-05-04 14:56 | 55.99705 | 37.58732 | 2305 ft | 144 kts | 256° |
| 2026-05-04 14:56 | 55.99453 | 37.57022 | 2065 ft | 136 kts | 256° |
| 2026-05-04 14:56 | 55.99213 | 37.55400 | 1874 ft | 135 kts | 255° |
| 2026-05-04 14:57 | 55.98972 | 37.53782 | 1740 ft | 141 kts | 255° |
| 2026-05-04 14:57 | 55.98712 | 37.52050 | 1523 ft | 143 kts | 256° |
| 2026-05-04 14:57 | 55.98467 | 37.50396 | 1318 ft | 133 kts | 256° |
| 2026-05-04 14:57 | 55.98227 | 37.48776 | 1195 ft | 140 kts | 255° |
| 2026-05-04 14:58 | 55.97968 | 37.47064 | 958 ft | 140 kts | 256° |
| 2026-05-04 14:58 | 55.97722 | 37.45403 | 811 ft | 138 kts | 257° |
| 2026-05-04 14:58 | 55.97473 | 37.43728 | 659 ft | 138 kts | 256° |
| 2026-05-04 14:58 | 55.97251 | 37.42234 | 645 ft | 104 kts | 255° |
| 2026-05-04 14:59 | 55.97137 | 37.41458 | 646 ft | 35 kts | 259° |
| 2026-05-04 14:59 | 55.97157 | 37.41359 | 649 ft | 6 kts | 338° |
| 2026-05-04 14:59 | 55.97344 | 37.41263 | 649 ft | 18 kts | 345° |
| 2026-05-04 15:00 | 55.97454 | 37.41210 | 646 ft | 1 kts | 344° |
| 2026-05-04 15:00 | 55.97463 | 37.41206 | 646 ft | 2 kts | 344° |
| 2026-05-04 15:00 | 55.97476 | 37.41199 | 651 ft | 0 kts | 344° |
| 2026-05-04 15:01 | 55.97493 | 37.41191 | 645 ft | 2 kts | 344° |
| 2026-05-04 15:01 | 55.97538 | 37.41169 | 649 ft | 12 kts | 345° |
| 2026-05-04 15:01 | 55.97541 | 37.41167 | 649 ft | 0 kts | 345° |
| 2026-05-04 15:02 | 55.97545 | 37.41165 | 648 ft | 5 kts | 345° |
| 2026-05-04 15:02 | 55.97616 | 37.41206 | 648 ft | 13 kts | 53° |
| 2026-05-04 15:02 | 55.97649 | 37.41354 | 649 ft | 13 kts | 75° |
| 2026-05-04 15:02 | 55.97703 | 37.41472 | 646 ft | 13 kts | 6° |
| 2026-05-04 15:03 | 55.97792 | 37.41430 | 652 ft | 13 kts | 345° |
| 2026-05-04 15:03 | 55.97879 | 37.41388 | 644 ft | 13 kts | 345° |
| 2026-05-04 15:03 | 55.97946 | 37.41332 | 651 ft | 9 kts | 301° |
| 2026-05-04 15:03 | 55.97944 | 37.41273 | 649 ft | 2 kts | 239° |
| 2026-05-04 15:04 | 55.97937 | 37.41247 | 652 ft | 3 kts | 245° |
| 2026-05-04 15:04 | 55.97932 | 37.41223 | 647 ft | 1 kts | 250° |
| 2026-05-04 15:04 | 55.97931 | 37.41218 | 645 ft | 0 kts | 250° |